sensor_id;sensor_type;location;lat;lon;timestamp;temperature;humidity
26326;DHT22;14032;52.510;7.342;2023-07-31T00:00:43;15.80;99.90
26326;DHT22;14032;52.510;7.342;2023-07-31T00:03:08;15.80;99.90
26326;DHT22;14032;52.510;7.342;2023-07-31T00:05:34;15.80;99.90
26326;DHT22;14032;52.510;7.342;2023-07-31T00:07:59;15.80;99.90
26326;DHT22;14032;52.510;7.342;2023-07-31T00:10:25;15.70;99.90
26326;DHT22;14032;52.510;7.342;2023-07-31T00:12:50;15.70;99.90
26326;DHT22;14032;52.510;7.342;2023-07-31T00:15:16;15.60;99.90
26326;DHT22;14032;52.510;7.342;2023-07-31T00:17:42;15.70;99.90
26326;DHT22;14032;52.510;7.342;2023-07-31T00:20:07;15.60;99.90
26326;DHT22;14032;52.510;7.342;2023-07-31T00:22:33;15.60;99.90
26326;DHT22;14032;52.510;7.342;2023-07-31T00:24:59;15.50;99.90
26326;DHT22;14032;52.510;7.342;2023-07-31T00:27:25;15.50;99.90
26326;DHT22;14032;52.510;7.342;2023-07-31T00:29:51;15.50;99.90
26326;DHT22;14032;52.510;7.342;2023-07-31T00:32:16;15.50;99.90
26326;DHT22;14032;52.510;7.342;2023-07-31T00:34:42;15.40;99.90
26326;DHT22;14032;52.510;7.342;2023-07-31T00:37:07;15.40;99.90
26326;DHT22;14032;52.510;7.342;2023-07-31T00:39:34;15.40;99.90
26326;DHT22;14032;52.510;7.342;2023-07-31T00:42:00;15.40;99.90
26326;DHT22;14032;52.510;7.342;2023-07-31T00:44:25;15.30;99.90
26326;DHT22;14032;52.510;7.342;2023-07-31T00:46:51;15.30;99.90
26326;DHT22;14032;52.510;7.342;2023-07-31T00:49:17;15.30;99.90
26326;DHT22;14032;52.510;7.342;2023-07-31T00:51:42;15.30;99.90
26326;DHT22;14032;52.510;7.342;2023-07-31T00:54:08;15.30;99.90
26326;DHT22;14032;52.510;7.342;2023-07-31T00:56:34;15.30;99.90
26326;DHT22;14032;52.510;7.342;2023-07-31T00:59:00;15.30;99.90
26326;DHT22;14032;52.510;7.342;2023-07-31T01:01:25;15.20;99.90
26326;DHT22;14032;52.510;7.342;2023-07-31T01:03:52;15.20;99.90
26326;DHT22;14032;52.510;7.342;2023-07-31T01:09:04;15.20;99.90
26326;DHT22;14032;52.510;7.342;2023-07-31T01:11:43;15.20;99.90
26326;DHT22;14032;52.510;7.342;2023-07-31T01:14:11;15.10;99.90
26326;DHT22;14032;52.510;7.342;2023-07-31T01:16:37;15.20;99.90
26326;DHT22;14032;52.510;7.342;2023-07-31T01:19:02;15.10;99.90
26326;DHT22;14032;52.510;7.342;2023-07-31T01:24:34;15.10;99.90
26326;DHT22;14032;52.510;7.342;2023-07-31T01:27:05;15.20;99.90
26326;DHT22;14032;52.510;7.342;2023-07-31T01:32:04;15.10;99.90
26326;DHT22;14032;52.510;7.342;2023-07-31T01:34:31;15.10;99.90
26326;DHT22;14032;52.510;7.342;2023-07-31T01:36:57;15.10;99.90
26326;DHT22;14032;52.510;7.342;2023-07-31T01:39:25;15.20;99.90
26326;DHT22;14032;52.510;7.342;2023-07-31T01:41:51;15.10;99.90
26326;DHT22;14032;52.510;7.342;2023-07-31T01:44:17;15.10;99.90
26326;DHT22;14032;52.510;7.342;2023-07-31T01:46:42;15.10;99.90
26326;DHT22;14032;52.510;7.342;2023-07-31T01:49:08;15.10;99.90
26326;DHT22;14032;52.510;7.342;2023-07-31T01:51:33;15.10;99.90
26326;DHT22;14032;52.510;7.342;2023-07-31T01:54:00;15.10;99.90
26326;DHT22;14032;52.510;7.342;2023-07-31T01:56:26;15.10;99.90
26326;DHT22;14032;52.510;7.342;2023-07-31T01:58:51;15.00;99.90
26326;DHT22;14032;52.510;7.342;2023-07-31T02:01:17;15.10;99.90
26326;DHT22;14032;52.510;7.342;2023-07-31T02:03:42;15.00;99.90
26326;DHT22;14032;52.510;7.342;2023-07-31T02:06:08;15.10;99.90
26326;DHT22;14032;52.510;7.342;2023-07-31T02:08:34;15.00;99.90
26326;DHT22;14032;52.510;7.342;2023-07-31T02:11:00;15.00;99.90
26326;DHT22;14032;52.510;7.342;2023-07-31T02:13:25;15.00;99.90
26326;DHT22;14032;52.510;7.342;2023-07-31T02:15:51;15.00;99.90
26326;DHT22;14032;52.510;7.342;2023-07-31T02:18:17;15.00;99.90
26326;DHT22;14032;52.510;7.342;2023-07-31T02:20:42;15.00;99.90
26326;DHT22;14032;52.510;7.342;2023-07-31T02:23:08;15.00;99.90
26326;DHT22;14032;52.510;7.342;2023-07-31T02:25:34;15.00;99.90
26326;DHT22;14032;52.510;7.342;2023-07-31T02:27:59;15.00;99.90
26326;DHT22;14032;52.510;7.342;2023-07-31T02:30:25;15.00;99.90
26326;DHT22;14032;52.510;7.342;2023-07-31T02:32:50;15.00;99.90
26326;DHT22;14032;52.510;7.342;2023-07-31T02:35:16;15.00;99.90
26326;DHT22;14032;52.510;7.342;2023-07-31T02:37:43;15.00;99.90
26326;DHT22;14032;52.510;7.342;2023-07-31T02:40:09;15.00;99.90
26326;DHT22;14032;52.510;7.342;2023-07-31T02:42:35;15.00;99.90
26326;DHT22;14032;52.510;7.342;2023-07-31T02:45:01;15.00;99.90
26326;DHT22;14032;52.510;7.342;2023-07-31T02:47:26;15.00;99.90
26326;DHT22;14032;52.510;7.342;2023-07-31T02:49:52;15.00;99.90
26326;DHT22;14032;52.510;7.342;2023-07-31T02:52:17;15.00;99.90
26326;DHT22;14032;52.510;7.342;2023-07-31T02:54:43;15.00;99.90
26326;DHT22;14032;52.510;7.342;2023-07-31T02:57:08;15.00;99.90
26326;DHT22;14032;52.510;7.342;2023-07-31T02:59:34;15.00;99.90
26326;DHT22;14032;52.510;7.342;2023-07-31T03:02:00;15.00;99.90
26326;DHT22;14032;52.510;7.342;2023-07-31T03:04:25;15.00;99.90
26326;DHT22;14032;52.510;7.342;2023-07-31T03:06:51;15.00;99.90
26326;DHT22;14032;52.510;7.342;2023-07-31T03:09:16;15.00;99.90
26326;DHT22;14032;52.510;7.342;2023-07-31T03:11:42;15.00;99.90
26326;DHT22;14032;52.510;7.342;2023-07-31T03:14:07;15.00;99.90
26326;DHT22;14032;52.510;7.342;2023-07-31T03:16:33;15.00;99.90
26326;DHT22;14032;52.510;7.342;2023-07-31T03:18:58;15.10;99.90
26326;DHT22;14032;52.510;7.342;2023-07-31T03:21:24;15.10;99.90
26326;DHT22;14032;52.510;7.342;2023-07-31T03:23:49;15.10;99.90
26326;DHT22;14032;52.510;7.342;2023-07-31T03:26:15;15.10;99.90
26326;DHT22;14032;52.510;7.342;2023-07-31T03:28:40;15.10;99.90
26326;DHT22;14032;52.510;7.342;2023-07-31T03:31:06;15.10;99.90
26326;DHT22;14032;52.510;7.342;2023-07-31T03:33:33;15.10;99.90
26326;DHT22;14032;52.510;7.342;2023-07-31T03:35:59;15.20;99.90
26326;DHT22;14032;52.510;7.342;2023-07-31T03:38:24;15.20;99.90
26326;DHT22;14032;52.510;7.342;2023-07-31T03:40:50;15.20;99.90
26326;DHT22;14032;52.510;7.342;2023-07-31T03:43:15;15.20;99.90
26326;DHT22;14032;52.510;7.342;2023-07-31T03:45:41;15.20;99.90
26326;DHT22;14032;52.510;7.342;2023-07-31T03:48:07;15.20;99.90
26326;DHT22;14032;52.510;7.342;2023-07-31T03:50:33;15.20;99.90
26326;DHT22;14032;52.510;7.342;2023-07-31T03:52:59;15.20;99.90
26326;DHT22;14032;52.510;7.342;2023-07-31T03:55:24;15.20;99.90
26326;DHT22;14032;52.510;7.342;2023-07-31T03:57:50;15.30;99.90
26326;DHT22;14032;52.510;7.342;2023-07-31T04:00:15;15.20;99.90
26326;DHT22;14032;52.510;7.342;2023-07-31T04:02:41;15.20;99.90
26326;DHT22;14032;52.510;7.342;2023-07-31T04:05:07;15.20;99.90
26326;DHT22;14032;52.510;7.342;2023-07-31T04:07:33;15.30;99.90
26326;DHT22;14032;52.510;7.342;2023-07-31T04:09:59;15.30;99.90
26326;DHT22;14032;52.510;7.342;2023-07-31T04:12:25;15.30;99.90
26326;DHT22;14032;52.510;7.342;2023-07-31T04:14:51;15.30;99.90
26326;DHT22;14032;52.510;7.342;2023-07-31T04:17:17;15.30;99.90
26326;DHT22;14032;52.510;7.342;2023-07-31T04:19:43;15.30;99.90
26326;DHT22;14032;52.510;7.342;2023-07-31T04:22:09;15.30;99.90
26326;DHT22;14032;52.510;7.342;2023-07-31T04:24:34;15.40;99.90
26326;DHT22;14032;52.510;7.342;2023-07-31T04:27:00;15.40;99.90
26326;DHT22;14032;52.510;7.342;2023-07-31T04:29:26;15.40;99.90
26326;DHT22;14032;52.510;7.342;2023-07-31T04:31:51;15.50;99.90
26326;DHT22;14032;52.510;7.342;2023-07-31T04:34:17;15.50;99.90
26326;DHT22;14032;52.510;7.342;2023-07-31T04:36:42;15.50;99.90
26326;DHT22;14032;52.510;7.342;2023-07-31T04:39:08;15.50;99.90
26326;DHT22;14032;52.510;7.342;2023-07-31T04:41:33;15.40;99.90
26326;DHT22;14032;52.510;7.342;2023-07-31T04:43:59;15.50;99.90
26326;DHT22;14032;52.510;7.342;2023-07-31T04:46:25;15.50;99.90
26326;DHT22;14032;52.510;7.342;2023-07-31T04:48:50;15.50;99.90
26326;DHT22;14032;52.510;7.342;2023-07-31T04:51:16;15.50;99.90
26326;DHT22;14032;52.510;7.342;2023-07-31T04:53:41;15.60;99.90
26326;DHT22;14032;52.510;7.342;2023-07-31T04:56:07;15.60;99.90
26326;DHT22;14032;52.510;7.342;2023-07-31T04:58:32;15.60;99.90
26326;DHT22;14032;52.510;7.342;2023-07-31T05:00:58;15.60;99.90
26326;DHT22;14032;52.510;7.342;2023-07-31T05:03:24;15.60;99.90
26326;DHT22;14032;52.510;7.342;2023-07-31T05:05:50;15.60;99.90
26326;DHT22;14032;52.510;7.342;2023-07-31T05:08:16;15.60;99.90
26326;DHT22;14032;52.510;7.342;2023-07-31T05:10:43;15.60;99.90
26326;DHT22;14032;52.510;7.342;2023-07-31T05:13:10;15.60;99.90
26326;DHT22;14032;52.510;7.342;2023-07-31T05:15:35;15.60;99.90
26326;DHT22;14032;52.510;7.342;2023-07-31T05:18:01;15.70;99.90
26326;DHT22;14032;52.510;7.342;2023-07-31T05:20:26;15.70;99.90
26326;DHT22;14032;52.510;7.342;2023-07-31T05:22:53;15.60;99.90
26326;DHT22;14032;52.510;7.342;2023-07-31T05:25:18;15.60;99.90
26326;DHT22;14032;52.510;7.342;2023-07-31T05:27:44;15.70;99.90
26326;DHT22;14032;52.510;7.342;2023-07-31T05:30:10;15.70;99.90
26326;DHT22;14032;52.510;7.342;2023-07-31T05:32:35;15.70;99.90
26326;DHT22;14032;52.510;7.342;2023-07-31T05:35:01;15.70;99.90
26326;DHT22;14032;52.510;7.342;2023-07-31T05:37:26;15.60;99.90
26326;DHT22;14032;52.510;7.342;2023-07-31T05:39:52;15.70;99.90
26326;DHT22;14032;52.510;7.342;2023-07-31T05:42:18;15.70;99.90
26326;DHT22;14032;52.510;7.342;2023-07-31T05:44:43;15.70;99.90
26326;DHT22;14032;52.510;7.342;2023-07-31T05:47:09;15.70;99.90
26326;DHT22;14032;52.510;7.342;2023-07-31T05:49:35;15.70;99.90
26326;DHT22;14032;52.510;7.342;2023-07-31T05:52:00;15.70;99.90
26326;DHT22;14032;52.510;7.342;2023-07-31T05:54:26;15.70;99.90
26326;DHT22;14032;52.510;7.342;2023-07-31T05:56:51;15.70;99.90
26326;DHT22;14032;52.510;7.342;2023-07-31T05:59:17;15.60;99.90
26326;DHT22;14032;52.510;7.342;2023-07-31T06:01:43;15.60;99.90
26326;DHT22;14032;52.510;7.342;2023-07-31T06:04:08;15.60;99.90
26326;DHT22;14032;52.510;7.342;2023-07-31T06:06:34;15.60;99.90
26326;DHT22;14032;52.510;7.342;2023-07-31T06:08:59;15.60;99.90
26326;DHT22;14032;52.510;7.342;2023-07-31T06:11:25;15.70;99.90
26326;DHT22;14032;52.510;7.342;2023-07-31T06:13:51;15.60;99.90
26326;DHT22;14032;52.510;7.342;2023-07-31T06:16:16;15.60;99.90
26326;DHT22;14032;52.510;7.342;2023-07-31T06:18:42;15.60;99.90
26326;DHT22;14032;52.510;7.342;2023-07-31T06:21:09;15.60;99.90
26326;DHT22;14032;52.510;7.342;2023-07-31T06:23:35;15.60;99.90
26326;DHT22;14032;52.510;7.342;2023-07-31T06:26:00;15.60;99.90
26326;DHT22;14032;52.510;7.342;2023-07-31T06:28:30;15.60;99.90
26326;DHT22;14032;52.510;7.342;2023-07-31T06:30:56;15.60;99.90
26326;DHT22;14032;52.510;7.342;2023-07-31T06:33:22;15.60;99.90
26326;DHT22;14032;52.510;7.342;2023-07-31T06:35:47;15.60;99.90
26326;DHT22;14032;52.510;7.342;2023-07-31T06:38:13;15.60;99.90
26326;DHT22;14032;52.510;7.342;2023-07-31T06:40:38;15.60;99.90
26326;DHT22;14032;52.510;7.342;2023-07-31T06:43:04;15.70;99.90
26326;DHT22;14032;52.510;7.342;2023-07-31T06:45:35;15.70;99.90
26326;DHT22;14032;52.510;7.342;2023-07-31T06:48:01;15.60;99.90
26326;DHT22;14032;52.510;7.342;2023-07-31T06:50:33;15.60;99.90
26326;DHT22;14032;52.510;7.342;2023-07-31T06:52:59;15.60;99.90
26326;DHT22;14032;52.510;7.342;2023-07-31T06:55:25;15.60;99.90
26326;DHT22;14032;52.510;7.342;2023-07-31T06:57:53;15.70;99.90
26326;DHT22;14032;52.510;7.342;2023-07-31T07:00:20;15.60;99.90
26326;DHT22;14032;52.510;7.342;2023-07-31T07:02:46;15.60;99.90
26326;DHT22;14032;52.510;7.342;2023-07-31T07:05:13;15.60;99.90
26326;DHT22;14032;52.510;7.342;2023-07-31T07:07:40;15.60;99.90
26326;DHT22;14032;52.510;7.342;2023-07-31T07:10:06;15.70;99.90
26326;DHT22;14032;52.510;7.342;2023-07-31T07:12:33;15.70;99.90
26326;DHT22;14032;52.510;7.342;2023-07-31T07:14:59;15.70;99.90
26326;DHT22;14032;52.510;7.342;2023-07-31T07:17:27;15.70;99.90
26326;DHT22;14032;52.510;7.342;2023-07-31T07:19:53;15.70;99.90
26326;DHT22;14032;52.510;7.342;2023-07-31T07:22:18;15.70;99.90
26326;DHT22;14032;52.510;7.342;2023-07-31T07:24:44;15.70;99.90
26326;DHT22;14032;52.510;7.342;2023-07-31T07:27:10;15.80;99.90
26326;DHT22;14032;52.510;7.342;2023-07-31T07:29:35;15.80;99.90
26326;DHT22;14032;52.510;7.342;2023-07-31T07:32:01;15.80;99.90
26326;DHT22;14032;52.510;7.342;2023-07-31T07:34:27;15.80;99.90
26326;DHT22;14032;52.510;7.342;2023-07-31T07:36:54;15.80;99.90
26326;DHT22;14032;52.510;7.342;2023-07-31T07:39:20;15.80;99.90
26326;DHT22;14032;52.510;7.342;2023-07-31T07:41:46;15.80;99.90
26326;DHT22;14032;52.510;7.342;2023-07-31T07:44:12;15.90;99.90
26326;DHT22;14032;52.510;7.342;2023-07-31T07:46:37;15.90;99.90
26326;DHT22;14032;52.510;7.342;2023-07-31T07:49:03;15.90;99.90
26326;DHT22;14032;52.510;7.342;2023-07-31T07:51:29;15.90;99.90
26326;DHT22;14032;52.510;7.342;2023-07-31T07:53:56;15.90;99.90
26326;DHT22;14032;52.510;7.342;2023-07-31T07:56:23;16.00;99.90
26326;DHT22;14032;52.510;7.342;2023-07-31T07:58:49;16.00;99.90
26326;DHT22;14032;52.510;7.342;2023-07-31T08:01:15;16.00;99.90
26326;DHT22;14032;52.510;7.342;2023-07-31T08:03:41;16.10;99.90
26326;DHT22;14032;52.510;7.342;2023-07-31T08:06:07;16.10;99.90
26326;DHT22;14032;52.510;7.342;2023-07-31T08:08:35;16.10;99.90
26326;DHT22;14032;52.510;7.342;2023-07-31T08:11:00;16.10;99.90
26326;DHT22;14032;52.510;7.342;2023-07-31T08:13:26;16.10;99.90
26326;DHT22;14032;52.510;7.342;2023-07-31T08:15:52;16.20;99.90
26326;DHT22;14032;52.510;7.342;2023-07-31T08:18:17;16.10;99.90
26326;DHT22;14032;52.510;7.342;2023-07-31T08:20:43;16.10;99.90
26326;DHT22;14032;52.510;7.342;2023-07-31T08:23:09;16.10;99.90
26326;DHT22;14032;52.510;7.342;2023-07-31T08:25:35;16.10;99.90
26326;DHT22;14032;52.510;7.342;2023-07-31T08:28:02;16.20;99.90
26326;DHT22;14032;52.510;7.342;2023-07-31T08:30:27;16.10;99.90
26326;DHT22;14032;52.510;7.342;2023-07-31T08:32:53;16.10;99.90
26326;DHT22;14032;52.510;7.342;2023-07-31T08:35:18;16.20;99.90
26326;DHT22;14032;52.510;7.342;2023-07-31T08:37:44;16.20;99.90
26326;DHT22;14032;52.510;7.342;2023-07-31T08:40:10;16.20;99.90
26326;DHT22;14032;52.510;7.342;2023-07-31T08:42:46;16.20;99.90
26326;DHT22;14032;52.510;7.342;2023-07-31T08:45:17;16.30;99.90
26326;DHT22;14032;52.510;7.342;2023-07-31T08:47:49;16.30;99.90
26326;DHT22;14032;52.510;7.342;2023-07-31T08:50:18;16.30;99.90
26326;DHT22;14032;52.510;7.342;2023-07-31T08:52:46;16.30;99.90
26326;DHT22;14032;52.510;7.342;2023-07-31T08:55:12;16.30;99.90
26326;DHT22;14032;52.510;7.342;2023-07-31T08:57:38;16.30;99.90
26326;DHT22;14032;52.510;7.342;2023-07-31T09:00:05;16.40;99.90
26326;DHT22;14032;52.510;7.342;2023-07-31T09:02:52;16.40;99.90
26326;DHT22;14032;52.510;7.342;2023-07-31T09:05:19;16.40;99.90
26326;DHT22;14032;52.510;7.342;2023-07-31T09:07:47;16.50;99.90
26326;DHT22;14032;52.510;7.342;2023-07-31T09:10:13;16.40;99.90
26326;DHT22;14032;52.510;7.342;2023-07-31T09:12:39;16.50;99.90
26326;DHT22;14032;52.510;7.342;2023-07-31T09:15:05;16.50;99.90
26326;DHT22;14032;52.510;7.342;2023-07-31T09:17:33;16.60;99.90
26326;DHT22;14032;52.510;7.342;2023-07-31T09:22:39;16.70;99.90
26326;DHT22;14032;52.510;7.342;2023-07-31T09:25:22;16.70;99.90
26326;DHT22;14032;52.510;7.342;2023-07-31T09:27:53;16.80;99.90
26326;DHT22;14032;52.510;7.342;2023-07-31T09:30:19;16.80;99.90
26326;DHT22;14032;52.510;7.342;2023-07-31T09:32:46;16.80;99.90
26326;DHT22;14032;52.510;7.342;2023-07-31T09:35:14;16.90;99.90
26326;DHT22;14032;52.510;7.342;2023-07-31T09:37:43;16.90;99.90
26326;DHT22;14032;52.510;7.342;2023-07-31T09:40:09;16.90;99.90
26326;DHT22;14032;52.510;7.342;2023-07-31T09:42:49;16.90;99.90
26326;DHT22;14032;52.510;7.342;2023-07-31T09:45:15;16.90;99.90
26326;DHT22;14032;52.510;7.342;2023-07-31T09:47:46;16.90;99.90
26326;DHT22;14032;52.510;7.342;2023-07-31T09:50:14;16.90;99.90
26326;DHT22;14032;52.510;7.342;2023-07-31T09:52:40;16.90;99.90
26326;DHT22;14032;52.510;7.342;2023-07-31T09:55:06;16.90;99.90
26326;DHT22;14032;52.510;7.342;2023-07-31T09:57:31;16.90;99.90
26326;DHT22;14032;52.510;7.342;2023-07-31T09:59:58;16.90;99.90
26326;DHT22;14032;52.510;7.342;2023-07-31T10:02:24;16.90;99.90
26326;DHT22;14032;52.510;7.342;2023-07-31T10:04:51;16.90;99.90
26326;DHT22;14032;52.510;7.342;2023-07-31T10:07:18;17.00;99.90
26326;DHT22;14032;52.510;7.342;2023-07-31T10:09:46;17.10;99.90
26326;DHT22;14032;52.510;7.342;2023-07-31T10:12:14;17.00;99.90
26326;DHT22;14032;52.510;7.342;2023-07-31T10:14:41;17.00;99.90
26326;DHT22;14032;52.510;7.342;2023-07-31T10:17:08;17.10;99.90
26326;DHT22;14032;52.510;7.342;2023-07-31T10:19:34;17.10;99.90
26326;DHT22;14032;52.510;7.342;2023-07-31T10:22:02;17.10;99.90
26326;DHT22;14032;52.510;7.342;2023-07-31T10:24:29;17.10;99.90
26326;DHT22;14032;52.510;7.342;2023-07-31T10:26:57;17.20;99.90
26326;DHT22;14032;52.510;7.342;2023-07-31T10:29:24;17.20;99.90
26326;DHT22;14032;52.510;7.342;2023-07-31T10:31:51;17.20;99.90
26326;DHT22;14032;52.510;7.342;2023-07-31T10:34:17;17.20;99.90
26326;DHT22;14032;52.510;7.342;2023-07-31T10:36:43;17.20;99.90
26326;DHT22;14032;52.510;7.342;2023-07-31T10:39:37;17.20;99.90
26326;DHT22;14032;52.510;7.342;2023-07-31T10:42:11;17.30;99.90
26326;DHT22;14032;52.510;7.342;2023-07-31T10:44:37;17.40;99.90
26326;DHT22;14032;52.510;7.342;2023-07-31T10:47:03;17.30;99.90
26326;DHT22;14032;52.510;7.342;2023-07-31T10:49:29;17.40;99.90
26326;DHT22;14032;52.510;7.342;2023-07-31T10:51:57;17.40;99.90
26326;DHT22;14032;52.510;7.342;2023-07-31T10:54:22;17.30;99.90
26326;DHT22;14032;52.510;7.342;2023-07-31T10:56:51;17.40;99.90
26326;DHT22;14032;52.510;7.342;2023-07-31T10:59:17;17.40;99.90
26326;DHT22;14032;52.510;7.342;2023-07-31T11:01:55;17.40;99.90
26326;DHT22;14032;52.510;7.342;2023-07-31T11:04:26;17.40;99.90
26326;DHT22;14032;52.510;7.342;2023-07-31T11:07:00;17.40;99.90
26326;DHT22;14032;52.510;7.342;2023-07-31T11:09:31;17.40;99.90
26326;DHT22;14032;52.510;7.342;2023-07-31T11:11:59;17.40;99.90
26326;DHT22;14032;52.510;7.342;2023-07-31T11:14:25;17.40;99.90
26326;DHT22;14032;52.510;7.342;2023-07-31T11:16:51;17.40;99.90
26326;DHT22;14032;52.510;7.342;2023-07-31T11:19:26;17.50;99.90
26326;DHT22;14032;52.510;7.342;2023-07-31T11:21:52;17.50;99.90
26326;DHT22;14032;52.510;7.342;2023-07-31T11:24:18;17.50;99.90
26326;DHT22;14032;52.510;7.342;2023-07-31T11:26:53;17.50;99.90
26326;DHT22;14032;52.510;7.342;2023-07-31T11:29:20;17.50;99.90
26326;DHT22;14032;52.510;7.342;2023-07-31T11:31:47;17.50;99.90
26326;DHT22;14032;52.510;7.342;2023-07-31T11:34:14;17.50;99.90
26326;DHT22;14032;52.510;7.342;2023-07-31T11:36:40;17.60;99.90
26326;DHT22;14032;52.510;7.342;2023-07-31T11:39:10;17.50;99.90
26326;DHT22;14032;52.510;7.342;2023-07-31T11:41:36;17.60;99.90
26326;DHT22;14032;52.510;7.342;2023-07-31T11:44:01;17.60;99.90
26326;DHT22;14032;52.510;7.342;2023-07-31T11:46:30;17.60;99.90
26326;DHT22;14032;52.510;7.342;2023-07-31T11:49:00;17.60;99.90
26326;DHT22;14032;52.510;7.342;2023-07-31T11:51:27;17.60;99.90
26326;DHT22;14032;52.510;7.342;2023-07-31T11:53:57;17.60;99.90
26326;DHT22;14032;52.510;7.342;2023-07-31T11:56:25;17.60;99.90
26326;DHT22;14032;52.510;7.342;2023-07-31T11:58:59;17.60;99.90
26326;DHT22;14032;52.510;7.342;2023-07-31T12:01:26;17.60;99.90
26326;DHT22;14032;52.510;7.342;2023-07-31T12:03:53;17.60;99.90
26326;DHT22;14032;52.510;7.342;2023-07-31T12:06:19;17.60;99.90
26326;DHT22;14032;52.510;7.342;2023-07-31T12:08:46;17.60;99.90
26326;DHT22;14032;52.510;7.342;2023-07-31T12:11:12;17.70;99.90
26326;DHT22;14032;52.510;7.342;2023-07-31T12:13:40;17.70;99.90
26326;DHT22;14032;52.510;7.342;2023-07-31T12:16:06;17.80;99.90
26326;DHT22;14032;52.510;7.342;2023-07-31T12:18:37;17.80;99.90
26326;DHT22;14032;52.510;7.342;2023-07-31T12:21:05;17.80;99.90
26326;DHT22;14032;52.510;7.342;2023-07-31T12:23:32;17.80;99.90
26326;DHT22;14032;52.510;7.342;2023-07-31T12:28:36;17.80;99.90
26326;DHT22;14032;52.510;7.342;2023-07-31T12:31:02;17.80;99.90
26326;DHT22;14032;52.510;7.342;2023-07-31T12:33:32;17.80;99.90
26326;DHT22;14032;52.510;7.342;2023-07-31T12:36:00;17.90;99.90
26326;DHT22;14032;52.510;7.342;2023-07-31T12:38:26;17.80;99.90
26326;DHT22;14032;52.510;7.342;2023-07-31T12:40:51;17.80;99.90
26326;DHT22;14032;52.510;7.342;2023-07-31T12:43:17;17.80;99.90
26326;DHT22;14032;52.510;7.342;2023-07-31T12:45:42;17.80;99.90
26326;DHT22;14032;52.510;7.342;2023-07-31T12:48:08;17.80;99.90
26326;DHT22;14032;52.510;7.342;2023-07-31T12:50:34;17.80;99.90
26326;DHT22;14032;52.510;7.342;2023-07-31T12:53:02;17.80;99.90
26326;DHT22;14032;52.510;7.342;2023-07-31T12:55:29;17.80;99.90
26326;DHT22;14032;52.510;7.342;2023-07-31T12:57:55;17.80;99.90
26326;DHT22;14032;52.510;7.342;2023-07-31T13:00:21;17.80;99.90
26326;DHT22;14032;52.510;7.342;2023-07-31T13:02:47;17.80;99.90
26326;DHT22;14032;52.510;7.342;2023-07-31T13:05:13;17.80;99.90
26326;DHT22;14032;52.510;7.342;2023-07-31T13:07:39;17.80;99.90
26326;DHT22;14032;52.510;7.342;2023-07-31T13:10:05;17.80;99.90
26326;DHT22;14032;52.510;7.342;2023-07-31T13:12:31;17.90;99.90
26326;DHT22;14032;52.510;7.342;2023-07-31T13:14:57;17.90;99.90
26326;DHT22;14032;52.510;7.342;2023-07-31T13:17:23;17.90;99.90
26326;DHT22;14032;52.510;7.342;2023-07-31T13:19:48;17.90;99.90
26326;DHT22;14032;52.510;7.342;2023-07-31T13:22:14;18.00;99.90
26326;DHT22;14032;52.510;7.342;2023-07-31T13:24:39;18.00;99.90
26326;DHT22;14032;52.510;7.342;2023-07-31T13:27:05;18.10;99.90
26326;DHT22;14032;52.510;7.342;2023-07-31T13:29:31;18.20;99.90
26326;DHT22;14032;52.510;7.342;2023-07-31T13:31:57;18.20;99.90
26326;DHT22;14032;52.510;7.342;2023-07-31T13:34:23;18.20;99.90
26326;DHT22;14032;52.510;7.342;2023-07-31T13:36:49;18.10;99.90
26326;DHT22;14032;52.510;7.342;2023-07-31T13:39:14;18.10;99.90
26326;DHT22;14032;52.510;7.342;2023-07-31T13:41:40;18.10;99.90
26326;DHT22;14032;52.510;7.342;2023-07-31T13:44:05;18.00;99.90
26326;DHT22;14032;52.510;7.342;2023-07-31T13:46:31;18.00;99.90
26326;DHT22;14032;52.510;7.342;2023-07-31T13:49:00;18.00;99.90
26326;DHT22;14032;52.510;7.342;2023-07-31T13:51:26;18.00;99.90
26326;DHT22;14032;52.510;7.342;2023-07-31T13:53:53;18.00;99.90
26326;DHT22;14032;52.510;7.342;2023-07-31T13:56:18;17.90;99.90
26326;DHT22;14032;52.510;7.342;2023-07-31T13:58:44;17.90;99.90
26326;DHT22;14032;52.510;7.342;2023-07-31T14:01:10;17.90;99.90
26326;DHT22;14032;52.510;7.342;2023-07-31T14:03:35;17.90;99.90
26326;DHT22;14032;52.510;7.342;2023-07-31T14:06:01;17.90;99.90
26326;DHT22;14032;52.510;7.342;2023-07-31T14:08:27;17.80;99.90
26326;DHT22;14032;52.510;7.342;2023-07-31T14:10:53;17.80;99.90
26326;DHT22;14032;52.510;7.342;2023-07-31T14:13:18;17.80;99.90
26326;DHT22;14032;52.510;7.342;2023-07-31T14:15:44;17.80;99.90
26326;DHT22;14032;52.510;7.342;2023-07-31T14:18:09;17.70;99.90
26326;DHT22;14032;52.510;7.342;2023-07-31T14:20:35;17.70;99.90
26326;DHT22;14032;52.510;7.342;2023-07-31T14:23:02;17.70;99.90
26326;DHT22;14032;52.510;7.342;2023-07-31T14:25:28;17.80;99.90
26326;DHT22;14032;52.510;7.342;2023-07-31T14:27:53;17.80;99.90
26326;DHT22;14032;52.510;7.342;2023-07-31T14:30:19;17.80;99.90
26326;DHT22;14032;52.510;7.342;2023-07-31T14:32:45;17.90;99.90
26326;DHT22;14032;52.510;7.342;2023-07-31T14:35:11;17.90;99.90
26326;DHT22;14032;52.510;7.342;2023-07-31T14:37:38;17.90;99.90
26326;DHT22;14032;52.510;7.342;2023-07-31T14:40:04;17.90;99.90
26326;DHT22;14032;52.510;7.342;2023-07-31T14:42:30;17.80;99.90
26326;DHT22;14032;52.510;7.342;2023-07-31T14:44:56;17.80;99.90
26326;DHT22;14032;52.510;7.342;2023-07-31T14:47:21;17.80;99.90
26326;DHT22;14032;52.510;7.342;2023-07-31T14:49:47;17.80;99.90
26326;DHT22;14032;52.510;7.342;2023-07-31T14:52:12;17.80;99.90
26326;DHT22;14032;52.510;7.342;2023-07-31T14:54:38;17.80;99.90
26326;DHT22;14032;52.510;7.342;2023-07-31T14:57:04;17.80;99.90
26326;DHT22;14032;52.510;7.342;2023-07-31T14:59:29;17.80;99.90
26326;DHT22;14032;52.510;7.342;2023-07-31T15:01:55;17.80;99.90
26326;DHT22;14032;52.510;7.342;2023-07-31T15:04:20;17.80;99.90
26326;DHT22;14032;52.510;7.342;2023-07-31T15:06:47;17.80;99.90
26326;DHT22;14032;52.510;7.342;2023-07-31T15:09:12;17.90;99.90
26326;DHT22;14032;52.510;7.342;2023-07-31T15:11:38;18.00;99.90
26326;DHT22;14032;52.510;7.342;2023-07-31T15:14:04;18.00;99.90
26326;DHT22;14032;52.510;7.342;2023-07-31T15:16:29;18.00;99.90
26326;DHT22;14032;52.510;7.342;2023-07-31T15:18:56;18.00;99.90
26326;DHT22;14032;52.510;7.342;2023-07-31T15:21:22;18.00;99.90
26326;DHT22;14032;52.510;7.342;2023-07-31T15:23:48;18.10;99.90
26326;DHT22;14032;52.510;7.342;2023-07-31T15:26:13;18.10;99.90
26326;DHT22;14032;52.510;7.342;2023-07-31T15:28:39;18.00;99.90
26326;DHT22;14032;52.510;7.342;2023-07-31T15:31:04;18.10;99.90
26326;DHT22;14032;52.510;7.342;2023-07-31T15:33:30;18.10;99.90
26326;DHT22;14032;52.510;7.342;2023-07-31T15:35:56;18.10;99.90
26326;DHT22;14032;52.510;7.342;2023-07-31T15:38:23;18.10;99.90